sensor_id;sensor_type;location;lat;lon;timestamp;temperature;humidity
10644;DHT22;5370;50.132;8.626;2023-12-20T00:00:59;7.30;99.90
10644;DHT22;5370;50.132;8.626;2023-12-20T00:03:24;7.30;99.90
10644;DHT22;5370;50.132;8.626;2023-12-20T00:05:50;7.30;99.90
10644;DHT22;5370;50.132;8.626;2023-12-20T00:08:16;7.30;99.90
10644;DHT22;5370;50.132;8.626;2023-12-20T00:10:43;7.30;99.90
10644;DHT22;5370;50.132;8.626;2023-12-20T00:13:09;7.20;99.90
10644;DHT22;5370;50.132;8.626;2023-12-20T00:15:34;7.20;99.80
10644;DHT22;5370;50.132;8.626;2023-12-20T00:18:00;7.20;99.90
10644;DHT22;5370;50.132;8.626;2023-12-20T00:20:26;7.20;99.90
10644;DHT22;5370;50.132;8.626;2023-12-20T00:22:52;7.20;99.90
10644;DHT22;5370;50.132;8.626;2023-12-20T00:25:17;7.20;99.90
10644;DHT22;5370;50.132;8.626;2023-12-20T00:27:43;7.20;99.90
10644;DHT22;5370;50.132;8.626;2023-12-20T00:30:09;7.20;99.90
10644;DHT22;5370;50.132;8.626;2023-12-20T00:32:35;7.20;99.90
10644;DHT22;5370;50.132;8.626;2023-12-20T00:35:01;7.10;99.90
10644;DHT22;5370;50.132;8.626;2023-12-20T00:37:27;7.10;99.90
10644;DHT22;5370;50.132;8.626;2023-12-20T00:39:52;7.10;99.90
10644;DHT22;5370;50.132;8.626;2023-12-20T00:42:18;7.10;99.90
10644;DHT22;5370;50.132;8.626;2023-12-20T00:44:44;7.10;99.90
10644;DHT22;5370;50.132;8.626;2023-12-20T00:47:10;7.10;99.90
10644;DHT22;5370;50.132;8.626;2023-12-20T00:49:35;7.10;99.90
10644;DHT22;5370;50.132;8.626;2023-12-20T00:52:01;7.10;99.90
10644;DHT22;5370;50.132;8.626;2023-12-20T00:54:27;7.10;99.90
10644;DHT22;5370;50.132;8.626;2023-12-20T00:56:52;7.10;99.90
10644;DHT22;5370;50.132;8.626;2023-12-20T00:59:18;7.10;99.90
10644;DHT22;5370;50.132;8.626;2023-12-20T01:01:44;7.10;99.90
10644;DHT22;5370;50.132;8.626;2023-12-20T01:04:10;7.10;99.90
10644;DHT22;5370;50.132;8.626;2023-12-20T01:06:35;7.10;99.90
10644;DHT22;5370;50.132;8.626;2023-12-20T01:09:01;7.10;99.90
10644;DHT22;5370;50.132;8.626;2023-12-20T01:11:27;7.10;99.90
10644;DHT22;5370;50.132;8.626;2023-12-20T01:13:53;7.10;99.90
10644;DHT22;5370;50.132;8.626;2023-12-20T01:16:18;7.10;99.90
10644;DHT22;5370;50.132;8.626;2023-12-20T01:18:44;7.10;99.90
10644;DHT22;5370;50.132;8.626;2023-12-20T01:21:10;7.10;99.90
10644;DHT22;5370;50.132;8.626;2023-12-20T01:23:36;7.10;99.90
10644;DHT22;5370;50.132;8.626;2023-12-20T01:26:01;7.10;99.90
10644;DHT22;5370;50.132;8.626;2023-12-20T01:28:28;7.10;99.90
10644;DHT22;5370;50.132;8.626;2023-12-20T01:30:53;7.10;99.90
10644;DHT22;5370;50.132;8.626;2023-12-20T01:33:19;7.10;99.90
10644;DHT22;5370;50.132;8.626;2023-12-20T01:35:45;7.10;99.90
10644;DHT22;5370;50.132;8.626;2023-12-20T01:38:10;7.10;99.90
10644;DHT22;5370;50.132;8.626;2023-12-20T01:40:36;7.10;99.90
10644;DHT22;5370;50.132;8.626;2023-12-20T01:43:09;7.10;99.90
10644;DHT22;5370;50.132;8.626;2023-12-20T01:45:35;7.10;99.90
10644;DHT22;5370;50.132;8.626;2023-12-20T01:48:01;7.10;99.90
10644;DHT22;5370;50.132;8.626;2023-12-20T01:50:28;7.10;99.90
10644;DHT22;5370;50.132;8.626;2023-12-20T01:52:56;7.10;99.90
10644;DHT22;5370;50.132;8.626;2023-12-20T01:55:24;7.10;99.90
10644;DHT22;5370;50.132;8.626;2023-12-20T01:57:50;7.10;99.90
10644;DHT22;5370;50.132;8.626;2023-12-20T02:00:17;7.10;99.90
10644;DHT22;5370;50.132;8.626;2023-12-20T02:02:44;7.10;99.90
10644;DHT22;5370;50.132;8.626;2023-12-20T02:05:11;7.10;99.90
10644;DHT22;5370;50.132;8.626;2023-12-20T02:07:37;7.10;99.90
10644;DHT22;5370;50.132;8.626;2023-12-20T02:10:03;7.10;99.90
10644;DHT22;5370;50.132;8.626;2023-12-20T02:12:29;7.10;99.90
10644;DHT22;5370;50.132;8.626;2023-12-20T02:14:55;7.10;99.90
10644;DHT22;5370;50.132;8.626;2023-12-20T02:17:22;7.10;99.90
10644;DHT22;5370;50.132;8.626;2023-12-20T02:19:49;7.10;99.90
10644;DHT22;5370;50.132;8.626;2023-12-20T02:22:15;7.10;99.90
10644;DHT22;5370;50.132;8.626;2023-12-20T02:24:41;7.10;99.90
10644;DHT22;5370;50.132;8.626;2023-12-20T02:27:08;7.10;99.90
10644;DHT22;5370;50.132;8.626;2023-12-20T02:29:34;7.10;99.90
10644;DHT22;5370;50.132;8.626;2023-12-20T02:32:00;7.10;99.90
10644;DHT22;5370;50.132;8.626;2023-12-20T02:34:25;7.10;99.90
10644;DHT22;5370;50.132;8.626;2023-12-20T02:36:51;7.10;99.90
10644;DHT22;5370;50.132;8.626;2023-12-20T02:39:18;7.10;99.90
10644;DHT22;5370;50.132;8.626;2023-12-20T02:41:44;7.10;99.90
10644;DHT22;5370;50.132;8.626;2023-12-20T02:44:10;7.10;99.90
10644;DHT22;5370;50.132;8.626;2023-12-20T02:46:35;7.10;99.90
10644;DHT22;5370;50.132;8.626;2023-12-20T02:49:01;7.10;99.90
10644;DHT22;5370;50.132;8.626;2023-12-20T02:51:27;7.10;99.90
10644;DHT22;5370;50.132;8.626;2023-12-20T02:53:52;7.10;99.90
10644;DHT22;5370;50.132;8.626;2023-12-20T02:56:18;7.20;99.90
10644;DHT22;5370;50.132;8.626;2023-12-20T02:58:44;7.20;99.90
10644;DHT22;5370;50.132;8.626;2023-12-20T03:01:09;7.20;99.90
10644;DHT22;5370;50.132;8.626;2023-12-20T03:03:35;7.20;99.90
10644;DHT22;5370;50.132;8.626;2023-12-20T03:06:00;7.10;99.90
10644;DHT22;5370;50.132;8.626;2023-12-20T03:08:26;7.10;99.90
10644;DHT22;5370;50.132;8.626;2023-12-20T03:10:51;7.10;99.90
10644;DHT22;5370;50.132;8.626;2023-12-20T03:13:18;7.10;99.90
10644;DHT22;5370;50.132;8.626;2023-12-20T03:15:45;7.10;99.90
10644;DHT22;5370;50.132;8.626;2023-12-20T03:18:10;7.10;99.90
10644;DHT22;5370;50.132;8.626;2023-12-20T03:20:36;7.10;99.90
10644;DHT22;5370;50.132;8.626;2023-12-20T03:23:01;7.00;99.80
10644;DHT22;5370;50.132;8.626;2023-12-20T03:25:27;7.00;99.90
10644;DHT22;5370;50.132;8.626;2023-12-20T03:27:53;7.00;99.90
10644;DHT22;5370;50.132;8.626;2023-12-20T03:30:18;7.00;99.90
10644;DHT22;5370;50.132;8.626;2023-12-20T03:32:44;7.00;99.90
10644;DHT22;5370;50.132;8.626;2023-12-20T03:35:10;6.90;99.90
10644;DHT22;5370;50.132;8.626;2023-12-20T03:37:36;6.90;99.90
10644;DHT22;5370;50.132;8.626;2023-12-20T03:40:02;6.90;99.90
10644;DHT22;5370;50.132;8.626;2023-12-20T03:42:28;6.90;99.90
10644;DHT22;5370;50.132;8.626;2023-12-20T03:44:54;7.00;99.90
10644;DHT22;5370;50.132;8.626;2023-12-20T03:47:19;6.90;99.90
10644;DHT22;5370;50.132;8.626;2023-12-20T03:49:45;6.90;99.90
10644;DHT22;5370;50.132;8.626;2023-12-20T03:52:10;7.00;99.90
10644;DHT22;5370;50.132;8.626;2023-12-20T03:54:36;7.00;99.90
10644;DHT22;5370;50.132;8.626;2023-12-20T03:57:01;7.00;99.90
10644;DHT22;5370;50.132;8.626;2023-12-20T03:59:27;7.00;99.90
10644;DHT22;5370;50.132;8.626;2023-12-20T04:01:52;7.00;99.90
10644;DHT22;5370;50.132;8.626;2023-12-20T04:04:18;7.00;99.90
10644;DHT22;5370;50.132;8.626;2023-12-20T04:06:43;7.00;99.90
10644;DHT22;5370;50.132;8.626;2023-12-20T04:09:09;7.00;99.90
10644;DHT22;5370;50.132;8.626;2023-12-20T04:11:35;7.10;99.90
10644;DHT22;5370;50.132;8.626;2023-12-20T04:14:00;7.10;99.90
10644;DHT22;5370;50.132;8.626;2023-12-20T04:16:26;7.10;99.90
10644;DHT22;5370;50.132;8.626;2023-12-20T04:18:51;7.10;99.90
10644;DHT22;5370;50.132;8.626;2023-12-20T04:21:17;7.10;99.90
10644;DHT22;5370;50.132;8.626;2023-12-20T04:23:43;7.10;99.90
10644;DHT22;5370;50.132;8.626;2023-12-20T04:26:10;7.10;99.90
10644;DHT22;5370;50.132;8.626;2023-12-20T04:28:35;7.10;99.90
10644;DHT22;5370;50.132;8.626;2023-12-20T04:31:01;7.10;99.90
10644;DHT22;5370;50.132;8.626;2023-12-20T04:33:26;7.10;99.90
10644;DHT22;5370;50.132;8.626;2023-12-20T04:35:52;7.10;99.90
10644;DHT22;5370;50.132;8.626;2023-12-20T04:38:17;7.10;99.90
10644;DHT22;5370;50.132;8.626;2023-12-20T04:40:43;7.10;99.90
10644;DHT22;5370;50.132;8.626;2023-12-20T04:43:08;7.10;99.90
10644;DHT22;5370;50.132;8.626;2023-12-20T04:45:34;7.10;99.90
10644;DHT22;5370;50.132;8.626;2023-12-20T04:48:01;7.00;99.90
10644;DHT22;5370;50.132;8.626;2023-12-20T04:50:27;7.00;99.90
10644;DHT22;5370;50.132;8.626;2023-12-20T04:52:52;6.90;99.90
10644;DHT22;5370;50.132;8.626;2023-12-20T04:55:18;6.80;99.90
10644;DHT22;5370;50.132;8.626;2023-12-20T04:57:43;6.70;99.90
10644;DHT22;5370;50.132;8.626;2023-12-20T05:00:09;6.70;99.90
10644;DHT22;5370;50.132;8.626;2023-12-20T05:02:36;6.60;99.90
10644;DHT22;5370;50.132;8.626;2023-12-20T05:05:02;6.70;99.90
10644;DHT22;5370;50.132;8.626;2023-12-20T05:07:27;6.70;99.90
10644;DHT22;5370;50.132;8.626;2023-12-20T05:09:53;6.70;99.90
10644;DHT22;5370;50.132;8.626;2023-12-20T05:12:19;6.70;99.90
10644;DHT22;5370;50.132;8.626;2023-12-20T05:14:45;6.80;99.90
10644;DHT22;5370;50.132;8.626;2023-12-20T05:17:11;6.80;99.90
10644;DHT22;5370;50.132;8.626;2023-12-20T05:19:36;6.80;99.90
10644;DHT22;5370;50.132;8.626;2023-12-20T05:22:02;6.80;99.90
10644;DHT22;5370;50.132;8.626;2023-12-20T05:24:28;6.70;99.90
10644;DHT22;5370;50.132;8.626;2023-12-20T05:26:53;6.60;99.90
10644;DHT22;5370;50.132;8.626;2023-12-20T05:29:19;6.50;99.90
10644;DHT22;5370;50.132;8.626;2023-12-20T05:31:44;6.50;99.90
10644;DHT22;5370;50.132;8.626;2023-12-20T05:34:10;6.40;99.90
10644;DHT22;5370;50.132;8.626;2023-12-20T05:36:36;6.30;99.90
10644;DHT22;5370;50.132;8.626;2023-12-20T05:39:01;6.30;99.90
10644;DHT22;5370;50.132;8.626;2023-12-20T05:41:29;6.20;99.90
10644;DHT22;5370;50.132;8.626;2023-12-20T05:43:54;6.10;99.90
10644;DHT22;5370;50.132;8.626;2023-12-20T05:46:20;6.10;99.90
10644;DHT22;5370;50.132;8.626;2023-12-20T05:48:46;6.10;99.90
10644;DHT22;5370;50.132;8.626;2023-12-20T05:51:12;6.10;99.90
10644;DHT22;5370;50.132;8.626;2023-12-20T05:53:38;6.00;99.90
10644;DHT22;5370;50.132;8.626;2023-12-20T05:56:04;6.00;99.90
10644;DHT22;5370;50.132;8.626;2023-12-20T05:58:29;5.90;99.90
10644;DHT22;5370;50.132;8.626;2023-12-20T06:00:55;5.90;99.90
10644;DHT22;5370;50.132;8.626;2023-12-20T06:03:21;5.80;99.90
10644;DHT22;5370;50.132;8.626;2023-12-20T06:05:46;5.80;99.90
10644;DHT22;5370;50.132;8.626;2023-12-20T06:08:12;5.70;99.90
10644;DHT22;5370;50.132;8.626;2023-12-20T06:10:37;5.60;99.90
10644;DHT22;5370;50.132;8.626;2023-12-20T06:13:03;5.60;99.90
10644;DHT22;5370;50.132;8.626;2023-12-20T06:15:30;5.50;99.90
10644;DHT22;5370;50.132;8.626;2023-12-20T06:17:55;5.50;99.90
10644;DHT22;5370;50.132;8.626;2023-12-20T06:20:21;5.40;99.90
10644;DHT22;5370;50.132;8.626;2023-12-20T06:22:46;5.40;99.90
10644;DHT22;5370;50.132;8.626;2023-12-20T06:25:12;5.40;99.90
10644;DHT22;5370;50.132;8.626;2023-12-20T06:27:38;5.40;99.90
10644;DHT22;5370;50.132;8.626;2023-12-20T06:30:04;5.30;99.90
10644;DHT22;5370;50.132;8.626;2023-12-20T06:32:29;5.30;99.90
10644;DHT22;5370;50.132;8.626;2023-12-20T06:34:55;5.30;99.90
10644;DHT22;5370;50.132;8.626;2023-12-20T06:37:21;5.30;99.90
10644;DHT22;5370;50.132;8.626;2023-12-20T06:39:46;5.20;99.90
10644;DHT22;5370;50.132;8.626;2023-12-20T06:42:13;5.30;99.90
10644;DHT22;5370;50.132;8.626;2023-12-20T06:44:38;5.20;99.90
10644;DHT22;5370;50.132;8.626;2023-12-20T06:47:04;5.20;99.90
10644;DHT22;5370;50.132;8.626;2023-12-20T06:49:30;5.20;99.90
10644;DHT22;5370;50.132;8.626;2023-12-20T06:51:55;5.20;99.90
10644;DHT22;5370;50.132;8.626;2023-12-20T06:54:21;5.20;99.90
10644;DHT22;5370;50.132;8.626;2023-12-20T06:56:46;5.20;99.90
10644;DHT22;5370;50.132;8.626;2023-12-20T06:59:12;5.20;99.90
10644;DHT22;5370;50.132;8.626;2023-12-20T07:01:37;5.20;99.90
10644;DHT22;5370;50.132;8.626;2023-12-20T07:04:03;5.30;99.90
10644;DHT22;5370;50.132;8.626;2023-12-20T07:06:29;5.40;99.90
10644;DHT22;5370;50.132;8.626;2023-12-20T07:08:54;5.50;99.90
10644;DHT22;5370;50.132;8.626;2023-12-20T07:11:20;5.60;99.90
10644;DHT22;5370;50.132;8.626;2023-12-20T07:13:45;5.70;99.90
10644;DHT22;5370;50.132;8.626;2023-12-20T07:16:11;5.80;99.90
10644;DHT22;5370;50.132;8.626;2023-12-20T07:18:37;5.90;99.90
10644;DHT22;5370;50.132;8.626;2023-12-20T07:21:03;5.90;99.90
10644;DHT22;5370;50.132;8.626;2023-12-20T07:23:28;6.00;99.90
10644;DHT22;5370;50.132;8.626;2023-12-20T07:25:54;6.10;99.90
10644;DHT22;5370;50.132;8.626;2023-12-20T07:28:20;6.20;99.90
10644;DHT22;5370;50.132;8.626;2023-12-20T07:30:45;6.30;99.90
10644;DHT22;5370;50.132;8.626;2023-12-20T07:33:11;6.30;99.90
10644;DHT22;5370;50.132;8.626;2023-12-20T07:35:37;6.40;99.90
10644;DHT22;5370;50.132;8.626;2023-12-20T07:38:03;6.40;99.90
10644;DHT22;5370;50.132;8.626;2023-12-20T07:40:29;6.40;99.90
10644;DHT22;5370;50.132;8.626;2023-12-20T07:42:54;6.30;99.90
10644;DHT22;5370;50.132;8.626;2023-12-20T07:45:20;6.30;99.90
10644;DHT22;5370;50.132;8.626;2023-12-20T07:47:46;6.30;99.90
10644;DHT22;5370;50.132;8.626;2023-12-20T07:50:11;6.20;99.90
10644;DHT22;5370;50.132;8.626;2023-12-20T07:52:37;6.20;99.90
10644;DHT22;5370;50.132;8.626;2023-12-20T07:55:02;6.20;99.90
10644;DHT22;5370;50.132;8.626;2023-12-20T07:57:29;6.20;99.90
10644;DHT22;5370;50.132;8.626;2023-12-20T07:59:55;6.30;99.90
10644;DHT22;5370;50.132;8.626;2023-12-20T08:02:21;6.40;99.90
10644;DHT22;5370;50.132;8.626;2023-12-20T08:04:47;6.50;99.90
10644;DHT22;5370;50.132;8.626;2023-12-20T08:07:12;6.50;99.90
10644;DHT22;5370;50.132;8.626;2023-12-20T08:09:38;6.60;99.90
10644;DHT22;5370;50.132;8.626;2023-12-20T08:12:03;6.60;99.90
10644;DHT22;5370;50.132;8.626;2023-12-20T08:14:29;6.70;99.90
10644;DHT22;5370;50.132;8.626;2023-12-20T08:16:54;6.70;99.80
10644;DHT22;5370;50.132;8.626;2023-12-20T08:19:20;6.70;99.70
10644;DHT22;5370;50.132;8.626;2023-12-20T08:21:45;6.80;99.50
10644;DHT22;5370;50.132;8.626;2023-12-20T08:24:11;6.80;99.40
10644;DHT22;5370;50.132;8.626;2023-12-20T08:26:37;6.80;99.20
10644;DHT22;5370;50.132;8.626;2023-12-20T08:29:02;6.90;99.10
10644;DHT22;5370;50.132;8.626;2023-12-20T08:31:28;6.90;98.80
10644;DHT22;5370;50.132;8.626;2023-12-20T08:33:53;6.80;98.40
10644;DHT22;5370;50.132;8.626;2023-12-20T08:36:19;6.80;98.20
10644;DHT22;5370;50.132;8.626;2023-12-20T08:38:46;6.80;98.10
10644;DHT22;5370;50.132;8.626;2023-12-20T08:41:12;6.80;98.30
10644;DHT22;5370;50.132;8.626;2023-12-20T08:43:38;6.80;98.30
10644;DHT22;5370;50.132;8.626;2023-12-20T08:46:05;6.90;98.30
10644;DHT22;5370;50.132;8.626;2023-12-20T08:48:31;7.00;98.10
10644;DHT22;5370;50.132;8.626;2023-12-20T08:50:56;7.00;97.90
10644;DHT22;5370;50.132;8.626;2023-12-20T08:53:22;7.10;97.70
10644;DHT22;5370;50.132;8.626;2023-12-20T08:55:47;7.00;97.20
10644;DHT22;5370;50.132;8.626;2023-12-20T08:58:13;7.00;97.30
10644;DHT22;5370;50.132;8.626;2023-12-20T09:00:39;7.00;96.90
10644;DHT22;5370;50.132;8.626;2023-12-20T09:03:05;6.90;96.80
10644;DHT22;5370;50.132;8.626;2023-12-20T09:05:31;6.90;96.90
10644;DHT22;5370;50.132;8.626;2023-12-20T09:07:56;6.90;97.00
10644;DHT22;5370;50.132;8.626;2023-12-20T09:10:22;7.00;97.00
10644;DHT22;5370;50.132;8.626;2023-12-20T09:12:49;7.00;97.00
10644;DHT22;5370;50.132;8.626;2023-12-20T09:15:15;7.10;97.10
10644;DHT22;5370;50.132;8.626;2023-12-20T09:17:40;7.20;97.00
10644;DHT22;5370;50.132;8.626;2023-12-20T09:20:07;7.30;96.90
10644;DHT22;5370;50.132;8.626;2023-12-20T09:22:33;7.30;96.60
10644;DHT22;5370;50.132;8.626;2023-12-20T09:24:59;7.40;96.50
10644;DHT22;5370;50.132;8.626;2023-12-20T09:27:25;7.40;96.40
10644;DHT22;5370;50.132;8.626;2023-12-20T09:29:50;7.40;96.30
10644;DHT22;5370;50.132;8.626;2023-12-20T09:32:16;7.40;96.20
10644;DHT22;5370;50.132;8.626;2023-12-20T09:34:41;7.40;96.00
10644;DHT22;5370;50.132;8.626;2023-12-20T09:37:07;7.40;95.90
10644;DHT22;5370;50.132;8.626;2023-12-20T09:39:33;7.40;95.70
10644;DHT22;5370;50.132;8.626;2023-12-20T09:42:01;7.40;95.60
10644;DHT22;5370;50.132;8.626;2023-12-20T09:44:28;7.40;95.50
10644;DHT22;5370;50.132;8.626;2023-12-20T09:46:55;7.40;95.30
10644;DHT22;5370;50.132;8.626;2023-12-20T09:49:21;7.30;95.20
10644;DHT22;5370;50.132;8.626;2023-12-20T09:51:48;7.30;95.20
10644;DHT22;5370;50.132;8.626;2023-12-20T09:54:17;7.30;95.30
10644;DHT22;5370;50.132;8.626;2023-12-20T09:56:42;7.30;95.30
10644;DHT22;5370;50.132;8.626;2023-12-20T09:59:08;7.30;95.30
10644;DHT22;5370;50.132;8.626;2023-12-20T10:01:35;7.40;95.40
10644;DHT22;5370;50.132;8.626;2023-12-20T10:04:00;7.40;95.50
10644;DHT22;5370;50.132;8.626;2023-12-20T10:06:27;7.40;95.40
10644;DHT22;5370;50.132;8.626;2023-12-20T10:08:53;7.50;95.50
10644;DHT22;5370;50.132;8.626;2023-12-20T10:11:19;7.60;95.70
10644;DHT22;5370;50.132;8.626;2023-12-20T10:13:47;7.60;95.80
10644;DHT22;5370;50.132;8.626;2023-12-20T10:16:13;7.70;96.00
10644;DHT22;5370;50.132;8.626;2023-12-20T10:18:39;7.70;96.10
10644;DHT22;5370;50.132;8.626;2023-12-20T10:21:05;7.80;96.10
10644;DHT22;5370;50.132;8.626;2023-12-20T10:23:31;7.90;96.10
10644;DHT22;5370;50.132;8.626;2023-12-20T10:25:58;7.90;96.20
10644;DHT22;5370;50.132;8.626;2023-12-20T10:28:24;8.00;96.20
10644;DHT22;5370;50.132;8.626;2023-12-20T10:30:53;8.00;96.00
10644;DHT22;5370;50.132;8.626;2023-12-20T10:33:27;8.00;95.90
10644;DHT22;5370;50.132;8.626;2023-12-20T10:35:54;8.00;95.70
10644;DHT22;5370;50.132;8.626;2023-12-20T10:38:20;8.00;95.40
10644;DHT22;5370;50.132;8.626;2023-12-20T10:40:46;8.00;95.40
10644;DHT22;5370;50.132;8.626;2023-12-20T10:43:12;8.00;95.20
10644;DHT22;5370;50.132;8.626;2023-12-20T10:45:38;8.00;95.10
10644;DHT22;5370;50.132;8.626;2023-12-20T10:48:04;8.00;95.10
10644;DHT22;5370;50.132;8.626;2023-12-20T10:50:31;8.10;95.20
10644;DHT22;5370;50.132;8.626;2023-12-20T10:52:58;8.20;95.30
10644;DHT22;5370;50.132;8.626;2023-12-20T10:55:24;8.20;95.10
10644;DHT22;5370;50.132;8.626;2023-12-20T10:57:51;8.30;95.00
10644;DHT22;5370;50.132;8.626;2023-12-20T11:00:18;8.30;94.80
10644;DHT22;5370;50.132;8.626;2023-12-20T11:02:44;8.40;94.70
10644;DHT22;5370;50.132;8.626;2023-12-20T11:08:17;8.50;94.30
10644;DHT22;5370;50.132;8.626;2023-12-20T11:10:51;8.50;94.30
10644;DHT22;5370;50.132;8.626;2023-12-20T11:13:37;8.60;94.30
10644;DHT22;5370;50.132;8.626;2023-12-20T11:16:05;8.60;94.00
10644;DHT22;5370;50.132;8.626;2023-12-20T11:18:32;8.70;93.80
10644;DHT22;5370;50.132;8.626;2023-12-20T11:21:02;8.80;93.60
10644;DHT22;5370;50.132;8.626;2023-12-20T11:23:30;8.90;93.40
10644;DHT22;5370;50.132;8.626;2023-12-20T11:25:56;9.00;93.10
10644;DHT22;5370;50.132;8.626;2023-12-20T11:28:24;9.20;92.80
10644;DHT22;5370;50.132;8.626;2023-12-20T11:30:52;9.30;92.60
10644;DHT22;5370;50.132;8.626;2023-12-20T11:33:22;9.40;92.20
10644;DHT22;5370;50.132;8.626;2023-12-20T11:35:48;9.60;91.60
10644;DHT22;5370;50.132;8.626;2023-12-20T11:38:14;9.70;91.40
10644;DHT22;5370;50.132;8.626;2023-12-20T11:40:42;9.80;90.90
10644;DHT22;5370;50.132;8.626;2023-12-20T11:43:08;9.80;90.00
10644;DHT22;5370;50.132;8.626;2023-12-20T11:45:33;9.90;89.30
10644;DHT22;5370;50.132;8.626;2023-12-20T11:48:03;9.90;87.80
10644;DHT22;5370;50.132;8.626;2023-12-20T11:50:29;10.00;84.80
10644;DHT22;5370;50.132;8.626;2023-12-20T11:52:56;10.00;83.80
10644;DHT22;5370;50.132;8.626;2023-12-20T11:55:22;10.00;82.10
10644;DHT22;5370;50.132;8.626;2023-12-20T11:57:50;10.00;81.50
10644;DHT22;5370;50.132;8.626;2023-12-20T12:00:16;10.10;80.50
10644;DHT22;5370;50.132;8.626;2023-12-20T12:02:41;10.20;79.90
10644;DHT22;5370;50.132;8.626;2023-12-20T12:05:07;10.20;78.10
10644;DHT22;5370;50.132;8.626;2023-12-20T12:07:34;10.30;77.90
10644;DHT22;5370;50.132;8.626;2023-12-20T12:10:00;10.30;77.70
10644;DHT22;5370;50.132;8.626;2023-12-20T12:12:26;10.50;77.20
10644;DHT22;5370;50.132;8.626;2023-12-20T12:14:53;10.70;76.80
10644;DHT22;5370;50.132;8.626;2023-12-20T12:17:18;10.80;76.00
10644;DHT22;5370;50.132;8.626;2023-12-20T12:19:44;11.00;75.50
10644;DHT22;5370;50.132;8.626;2023-12-20T12:22:13;11.10;73.90
10644;DHT22;5370;50.132;8.626;2023-12-20T12:24:48;11.20;72.80
10644;DHT22;5370;50.132;8.626;2023-12-20T12:27:15;11.20;72.00
10644;DHT22;5370;50.132;8.626;2023-12-20T12:29:41;11.30;71.90
10644;DHT22;5370;50.132;8.626;2023-12-20T12:32:24;11.40;71.40
10644;DHT22;5370;50.132;8.626;2023-12-20T12:34:50;11.40;71.00
10644;DHT22;5370;50.132;8.626;2023-12-20T12:37:16;11.50;70.60
10644;DHT22;5370;50.132;8.626;2023-12-20T12:39:41;11.50;69.70
10644;DHT22;5370;50.132;8.626;2023-12-20T12:42:07;11.50;69.70
10644;DHT22;5370;50.132;8.626;2023-12-20T12:44:32;11.40;69.30
10644;DHT22;5370;50.132;8.626;2023-12-20T12:46:58;11.40;69.60
10644;DHT22;5370;50.132;8.626;2023-12-20T12:49:23;11.40;69.10
10644;DHT22;5370;50.132;8.626;2023-12-20T12:51:49;11.30;68.60
10644;DHT22;5370;50.132;8.626;2023-12-20T12:54:14;11.20;68.20
10644;DHT22;5370;50.132;8.626;2023-12-20T12:56:42;11.10;68.00
10644;DHT22;5370;50.132;8.626;2023-12-20T12:59:08;11.00;68.10
10644;DHT22;5370;50.132;8.626;2023-12-20T13:01:34;10.80;68.40
10644;DHT22;5370;50.132;8.626;2023-12-20T13:03:59;10.80;69.00
10644;DHT22;5370;50.132;8.626;2023-12-20T13:06:28;10.80;69.00
10644;DHT22;5370;50.132;8.626;2023-12-20T13:08:54;10.90;69.10
10644;DHT22;5370;50.132;8.626;2023-12-20T13:11:20;10.90;69.00
10644;DHT22;5370;50.132;8.626;2023-12-20T13:13:46;10.90;69.10
10644;DHT22;5370;50.132;8.626;2023-12-20T13:16:12;11.00;69.30
10644;DHT22;5370;50.132;8.626;2023-12-20T13:18:38;11.10;69.50
10644;DHT22;5370;50.132;8.626;2023-12-20T13:21:07;11.20;69.00
10644;DHT22;5370;50.132;8.626;2023-12-20T13:23:33;11.20;68.30
10644;DHT22;5370;50.132;8.626;2023-12-20T13:25:58;11.20;67.80
10644;DHT22;5370;50.132;8.626;2023-12-20T13:28:24;11.10;67.60
10644;DHT22;5370;50.132;8.626;2023-12-20T13:30:50;11.00;67.60
10644;DHT22;5370;50.132;8.626;2023-12-20T13:33:15;11.00;67.50
10644;DHT22;5370;50.132;8.626;2023-12-20T13:35:41;10.80;67.20
10644;DHT22;5370;50.132;8.626;2023-12-20T13:38:07;10.80;67.40
10644;DHT22;5370;50.132;8.626;2023-12-20T13:40:33;10.70;67.80
10644;DHT22;5370;50.132;8.626;2023-12-20T13:42:58;10.60;68.10
10644;DHT22;5370;50.132;8.626;2023-12-20T13:45:24;10.50;68.30
10644;DHT22;5370;50.132;8.626;2023-12-20T13:47:50;10.40;68.40
10644;DHT22;5370;50.132;8.626;2023-12-20T13:50:16;10.40;68.60
10644;DHT22;5370;50.132;8.626;2023-12-20T13:52:41;10.30;68.60
10644;DHT22;5370;50.132;8.626;2023-12-20T13:55:07;10.20;68.90
10644;DHT22;5370;50.132;8.626;2023-12-20T13:57:33;10.10;69.00
10644;DHT22;5370;50.132;8.626;2023-12-20T13:59:59;10.00;69.30
10644;DHT22;5370;50.132;8.626;2023-12-20T14:02:25;10.00;69.70
10644;DHT22;5370;50.132;8.626;2023-12-20T14:04:52;9.90;71.10
10644;DHT22;5370;50.132;8.626;2023-12-20T14:07:17;9.90;71.40
10644;DHT22;5370;50.132;8.626;2023-12-20T14:09:43;9.80;71.50
10644;DHT22;5370;50.132;8.626;2023-12-20T14:12:11;9.80;71.90
10644;DHT22;5370;50.132;8.626;2023-12-20T14:14:36;9.70;72.10
10644;DHT22;5370;50.132;8.626;2023-12-20T14:17:02;9.70;72.50
10644;DHT22;5370;50.132;8.626;2023-12-20T14:19:28;9.70;72.60
10644;DHT22;5370;50.132;8.626;2023-12-20T14:21:53;9.60;72.60
10644;DHT22;5370;50.132;8.626;2023-12-20T14:24:19;9.60;72.90
10644;DHT22;5370;50.132;8.626;2023-12-20T14:26:44;9.60;73.80
10644;DHT22;5370;50.132;8.626;2023-12-20T14:29:10;9.50;73.20
10644;DHT22;5370;50.132;8.626;2023-12-20T14:31:35;9.50;73.40
10644;DHT22;5370;50.132;8.626;2023-12-20T14:34:03;9.50;73.50
10644;DHT22;5370;50.132;8.626;2023-12-20T14:36:29;9.40;73.50
10644;DHT22;5370;50.132;8.626;2023-12-20T14:38:58;9.40;73.70
10644;DHT22;5370;50.132;8.626;2023-12-20T14:41:23;9.40;73.90
10644;DHT22;5370;50.132;8.626;2023-12-20T14:43:50;9.40;74.10
10644;DHT22;5370;50.132;8.626;2023-12-20T14:46:17;9.30;74.10
10644;DHT22;5370;50.132;8.626;2023-12-20T14:48:43;9.30;74.40
10644;DHT22;5370;50.132;8.626;2023-12-20T14:51:08;9.30;74.60
10644;DHT22;5370;50.132;8.626;2023-12-20T14:53:34;9.30;74.60
10644;DHT22;5370;50.132;8.626;2023-12-20T14:56:03;9.30;74.60
10644;DHT22;5370;50.132;8.626;2023-12-20T14:58:29;9.30;74.70
10644;DHT22;5370;50.132;8.626;2023-12-20T15:00:55;9.30;74.80
10644;DHT22;5370;50.132;8.626;2023-12-20T15:03:21;9.20;74.80
10644;DHT22;5370;50.132;8.626;2023-12-20T15:05:47;9.20;74.90
10644;DHT22;5370;50.132;8.626;2023-12-20T15:08:13;9.20;75.00
10644;DHT22;5370;50.132;8.626;2023-12-20T15:10:39;9.10;75.10
10644;DHT22;5370;50.132;8.626;2023-12-20T15:13:05;9.10;75.20
10644;DHT22;5370;50.132;8.626;2023-12-20T15:15:31;9.10;75.30
10644;DHT22;5370;50.132;8.626;2023-12-20T15:17:59;9.10;75.50
10644;DHT22;5370;50.132;8.626;2023-12-20T15:20:25;9.00;75.50
10644;DHT22;5370;50.132;8.626;2023-12-20T15:22:50;9.00;75.50
10644;DHT22;5370;50.132;8.626;2023-12-20T15:25:16;8.90;75.50
10644;DHT22;5370;50.132;8.626;2023-12-20T15:27:47;8.90;75.70
10644;DHT22;5370;50.132;8.626;2023-12-20T15:30:17;8.90;75.80
10644;DHT22;5370;50.132;8.626;2023-12-20T15:32:43;8.90;76.00
10644;DHT22;5370;50.132;8.626;2023-12-20T15:35:08;8.90;76.20
10644;DHT22;5370;50.132;8.626;2023-12-20T15:37:34;8.80;76.30
10644;DHT22;5370;50.132;8.626;2023-12-20T15:40:00;8.80;76.50
10644;DHT22;5370;50.132;8.626;2023-12-20T15:42:25;8.80;76.60
10644;DHT22;5370;50.132;8.626;2023-12-20T15:44:51;8.80;76.70
10644;DHT22;5370;50.132;8.626;2023-12-20T15:47:16;8.80;76.80
10644;DHT22;5370;50.132;8.626;2023-12-20T15:49:42;8.80;76.80
10644;DHT22;5370;50.132;8.626;2023-12-20T15:52:07;8.80;76.90
10644;DHT22;5370;50.132;8.626;2023-12-20T15:54:33;8.80;77.00